createdAt,value
2023-03-29T00:00:29.312Z,-0.40
2023-03-29T00:01:35.371Z,-0.39
2023-03-29T00:02:38.020Z,-0.45
2023-03-29T00:03:39.800Z,-0.43
2023-03-29T00:04:41.490Z,-0.36
2023-03-29T00:05:43.221Z,-0.35
2023-03-29T00:06:44.799Z,-0.36
2023-03-29T00:07:46.916Z,-0.37
2023-03-29T00:08:51.104Z,-0.34
2023-03-29T00:09:52.715Z,-0.33
2023-03-29T00:10:55.999Z,-0.31
2023-03-29T00:11:57.705Z,-0.30
2023-03-29T00:12:59.540Z,-0.29
2023-03-29T00:14:01.106Z,-0.30
2023-03-29T00:15:04.317Z,-0.33
2023-03-29T00:16:06.494Z,-0.38
2023-03-29T00:17:08.119Z,-0.37
2023-03-29T00:18:09.802Z,-0.36
2023-03-29T00:19:11.448Z,-0.36
2023-03-29T00:20:13.054Z,-0.31
2023-03-29T00:21:14.619Z,-0.32
2023-03-29T00:22:16.480Z,-0.32
2023-03-29T00:23:18.053Z,-0.33
2023-03-29T00:24:19.828Z,-0.27
2023-03-29T00:25:21.418Z,-0.25
2023-03-29T00:26:23.276Z,-0.28
2023-03-29T00:27:24.880Z,-0.34
2023-03-29T00:28:26.594Z,-0.29
2023-03-29T00:29:28.797Z,-0.32
2023-03-29T00:30:30.379Z,-0.30
2023-03-29T00:31:32.013Z,-0.28
2023-03-29T00:32:34.152Z,-0.30
2023-03-29T00:33:36.038Z,-0.30
2023-03-29T00:34:37.643Z,-0.31
2023-03-29T00:35:39.775Z,-0.32
2023-03-29T00:36:41.370Z,-0.29
2023-03-29T00:37:42.961Z,-0.29
2023-03-29T00:38:45.373Z,-0.30
2023-03-29T00:39:47.056Z,-0.32
2023-03-29T00:40:48.642Z,-0.31
2023-03-29T00:41:50.642Z,-0.35
2023-03-29T00:42:52.403Z,-0.35
2023-03-29T00:44:02.685Z,-0.35
2023-03-29T00:45:12.486Z,-0.31
2023-03-29T00:46:14.083Z,-0.33
2023-03-29T00:47:17.731Z,-0.37
2023-03-29T00:48:26.233Z,-0.36
2023-03-29T00:49:28.037Z,-0.34
2023-03-29T00:50:35.642Z,-0.38
2023-03-29T00:51:40.086Z,-0.36
2023-03-29T00:52:46.928Z,-0.40
2023-03-29T00:53:56.204Z,-0.39
2023-03-29T00:55:01.966Z,-0.36
2023-03-29T00:56:09.915Z,-0.37
2023-03-29T00:57:13.723Z,-0.38
2023-03-29T00:58:21.228Z,-0.37
2023-03-29T00:59:27.390Z,-0.39
2023-03-29T01:00:35.103Z,-0.43
2023-03-29T01:01:45.102Z,-0.41
2023-03-29T01:02:51.862Z,-0.38
2023-03-29T01:04:01.476Z,-0.41
2023-03-29T01:05:08.504Z,-0.39
2023-03-29T01:06:11.246Z,-0.36
2023-03-29T01:07:20.573Z,-0.55
2023-03-29T01:08:30.005Z,-0.60
2023-03-29T01:09:35.198Z,-0.63
2023-03-29T01:10:48.749Z,-0.64
2023-03-29T01:11:59.440Z,-0.62
2023-03-29T01:13:08.445Z,-0.64
2023-03-29T01:14:14.303Z,-0.62
2023-03-29T01:15:21.098Z,-0.60
2023-03-29T01:16:25.257Z,-0.62
2023-03-29T01:17:28.228Z,-0.64
2023-03-29T01:18:29.826Z,-0.67
2023-03-29T01:19:59.655Z,-0.66
2023-03-29T01:21:16.313Z,-0.65
2023-03-29T01:22:42.837Z,-0.63
2023-03-29T01:24:17.645Z,-0.66
2023-03-29T01:25:36.355Z,-0.90
2023-03-29T01:26:46.654Z,-0.93
2023-03-29T01:27:56.785Z,-0.92
2023-03-29T01:29:04.452Z,-0.97
2023-03-29T01:30:13.084Z,-0.93
2023-03-29T01:31:23.066Z,-0.94
2023-03-29T01:32:33.226Z,-0.96
2023-03-29T01:33:42.401Z,-0.93
2023-03-29T01:34:48.812Z,-0.92
2023-03-29T01:36:02.130Z,-0.92
2023-03-29T01:37:12.541Z,-0.90
2023-03-29T01:38:21.433Z,-0.88
2023-03-29T01:39:23.012Z,-0.85
2023-03-29T01:40:25.227Z,-0.88
2023-03-29T01:41:34.249Z,-0.92
2023-03-29T01:42:46.583Z,-0.94
2023-03-29T01:43:58.611Z,-0.97
2023-03-29T01:45:27.698Z,-1.07
2023-03-29T01:46:55.561Z,-1.09
2023-03-29T01:48:10.970Z,-1.11
2023-03-29T01:49:24.198Z,-1.09
2023-03-29T01:50:37.853Z,-1.07
2023-03-29T01:51:49.115Z,-1.11
2023-03-29T01:53:01.946Z,-1.11
2023-03-29T01:54:13.651Z,-1.10
2023-03-29T01:55:17.914Z,-1.08
2023-03-29T01:56:27.020Z,-1.08
2023-03-29T01:57:30.100Z,-1.11
2023-03-29T01:58:35.219Z,-1.14
2023-03-29T01:59:40.407Z,-1.08
2023-03-29T02:00:42.951Z,-1.05
2023-03-29T02:01:51.940Z,-1.03
2023-03-29T02:03:00.374Z,-1.05
2023-03-29T02:04:06.619Z,-1.03
2023-03-29T02:05:10.354Z,-1.08
2023-03-29T02:06:14.742Z,-1.08
2023-03-29T02:07:20.306Z,-1.09
2023-03-29T02:08:22.384Z,-1.09
2023-03-29T02:09:26.150Z,-1.08
2023-03-29T02:10:28.339Z,-1.09
2023-03-29T02:11:29.922Z,-1.13
2023-03-29T02:12:31.646Z,-1.14
2023-03-29T02:13:34.220Z,-1.09
2023-03-29T02:14:36.336Z,-1.07
2023-03-29T02:15:39.939Z,-1.11
2023-03-29T02:16:41.611Z,-1.15
2023-03-29T02:17:43.236Z,-1.13
2023-03-29T02:18:48.168Z,-1.15
2023-03-29T02:19:54.890Z,-1.29
2023-03-29T02:20:57.742Z,-1.31
2023-03-29T02:22:09.279Z,-1.31
2023-03-29T02:23:24.411Z,-1.33
2023-03-29T02:24:27.251Z,-1.31
2023-03-29T02:25:29.446Z,-1.36
2023-03-29T02:26:31.185Z,-1.49
2023-03-29T02:27:33.317Z,-1.52
2023-03-29T02:28:35.813Z,-1.45
2023-03-29T02:29:37.394Z,-1.39
2023-03-29T02:30:56.567Z,-1.34
2023-03-29T02:31:59.692Z,-1.36
2023-03-29T02:33:08.924Z,-1.37
2023-03-29T02:34:26.323Z,-1.38
2023-03-29T02:35:35.048Z,-1.36
2023-03-29T02:36:42.409Z,-1.38
2023-03-29T02:37:47.508Z,-1.39
2023-03-29T02:38:49.682Z,-1.38
2023-03-29T02:39:52.422Z,-1.40
2023-03-29T02:40:56.215Z,-1.40
2023-03-29T02:41:58.868Z,-1.43
2023-03-29T02:43:01.971Z,-1.53
2023-03-29T02:44:07.347Z,-1.53
2023-03-29T02:45:10.935Z,-1.52
2023-03-29T02:46:14.689Z,-1.53
2023-03-29T02:47:30.671Z,-1.53
2023-03-29T02:48:37.566Z,-1.50
2023-03-29T02:49:39.332Z,-1.49
2023-03-29T02:50:44.896Z,-1.46
2023-03-29T02:51:50.904Z,-1.49
2023-03-29T02:52:59.700Z,-1.53
2023-03-29T02:54:06.127Z,-1.55
2023-03-29T02:55:12.110Z,-1.55
2023-03-29T02:56:13.892Z,-1.55
2023-03-29T02:57:15.701Z,-1.59
2023-03-29T02:58:17.376Z,-1.64
2023-03-29T02:59:19.243Z,-1.59
2023-03-29T03:00:20.893Z,-1.61
2023-03-29T03:01:22.653Z,-1.57
2023-03-29T03:02:25.202Z,-1.53
2023-03-29T03:03:29.045Z,-1.52
2023-03-29T03:04:33.135Z,-1.52
2023-03-29T03:05:35.745Z,-1.52
2023-03-29T03:06:38.137Z,-1.51
2023-03-29T03:07:40.414Z,-1.45
2023-03-29T03:08:42.230Z,-1.40
2023-03-29T03:09:44.202Z,-1.36
2023-03-29T03:10:46.066Z,-1.38
2023-03-29T03:11:47.659Z,-1.42
2023-03-29T03:12:49.530Z,-1.37
2023-03-29T03:13:51.257Z,-1.36
2023-03-29T03:14:52.814Z,-1.31
2023-03-29T03:15:55.214Z,-1.29
2023-03-29T03:16:56.909Z,-1.26
2023-03-29T03:17:58.693Z,-1.25
2023-03-29T03:19:00.311Z,-1.21
2023-03-29T03:20:02.430Z,-1.28
2023-03-29T03:21:05.006Z,-1.28
2023-03-29T03:22:06.710Z,-1.29
2023-03-29T03:23:08.630Z,-1.29
2023-03-29T03:24:10.379Z,-1.34
2023-03-29T03:25:11.986Z,-1.34
2023-03-29T03:26:15.108Z,-1.35
2023-03-29T03:27:17.907Z,-1.43
2023-03-29T03:28:20.448Z,-1.45
2023-03-29T03:29:22.181Z,-1.51
2023-03-29T03:30:42.282Z,-1.59
2023-03-29T03:32:12.901Z,-1.50
2023-03-29T03:33:37.319Z,-1.47
2023-03-29T03:34:59.445Z,-1.46
2023-03-29T03:36:01.694Z,-1.44
2023-03-29T03:37:04.521Z,-1.41
2023-03-29T03:38:08.938Z,-1.45
2023-03-29T03:39:10.921Z,-1.41
2023-03-29T03:40:13.003Z,-1.40
2023-03-29T03:41:15.214Z,-1.38
2023-03-29T03:42:16.810Z,-1.36
2023-03-29T03:43:20.042Z,-1.41
2023-03-29T03:44:23.085Z,-1.40
2023-03-29T03:45:42.429Z,-1.38
2023-03-29T03:46:49.925Z,-1.42
2023-03-29T03:47:51.639Z,-1.44
2023-03-29T03:49:19.232Z,-1.44
2023-03-29T03:50:21.268Z,-1.43
2023-03-29T03:51:23.465Z,-1.44
2023-03-29T03:52:26.096Z,-1.44
2023-03-29T03:53:27.997Z,-1.44
2023-03-29T03:54:41.560Z,-1.48
2023-03-29T03:56:12.267Z,-1.47
2023-03-29T03:57:46.180Z,-1.49
2023-03-29T03:58:49.988Z,-1.46
2023-03-29T03:59:53.401Z,-1.45
2023-03-29T04:01:01.378Z,-1.45
2023-03-29T04:02:18.742Z,-1.44
2023-03-29T04:03:20.949Z,-1.39
2023-03-29T04:04:22.894Z,-1.43
2023-03-29T04:05:53.564Z,-1.47
2023-03-29T04:06:59.051Z,-1.51
2023-03-29T04:08:00.639Z,-1.51
2023-03-29T04:09:25.319Z,-1.64
2023-03-29T04:10:40.136Z,-1.74
2023-03-29T04:11:49.547Z,-1.88
2023-03-29T04:12:51.143Z,-1.92
2023-03-29T04:13:52.746Z,-1.86
2023-03-29T04:15:06.312Z,-1.94
2023-03-29T04:16:08.238Z,-1.94
2023-03-29T04:17:09.828Z,-1.93
2023-03-29T04:18:24.986Z,-1.82
2023-03-29T04:19:30.954Z,-1.80
2023-03-29T04:20:32.718Z,-1.76
2023-03-29T04:21:35.238Z,-1.74
2023-03-29T04:22:37.518Z,-1.70
2023-03-29T04:23:39.137Z,-1.67
2023-03-29T04:24:40.889Z,-1.65
2023-03-29T04:25:56.131Z,-1.65
2023-03-29T04:27:14.684Z,-1.60
2023-03-29T04:28:16.287Z,-1.60
2023-03-29T04:29:39.164Z,-1.79
2023-03-29T04:30:52.151Z,-1.98
2023-03-29T04:32:14.145Z,-2.10
2023-03-29T04:33:27.403Z,-2.14
2023-03-29T04:34:33.993Z,-2.20
2023-03-29T04:35:36.284Z,-2.12
2023-03-29T04:36:38.143Z,-2.02
2023-03-29T04:37:44.874Z,-1.94
2023-03-29T04:38:49.239Z,-1.82
2023-03-29T04:39:51.849Z,-1.76
2023-03-29T04:40:53.659Z,-1.77
2023-03-29T04:42:30.778Z,-1.78
2023-03-29T04:43:32.364Z,-1.75
2023-03-29T04:44:43.435Z,-1.75
2023-03-29T04:45:47.264Z,-1.73
2023-03-29T04:47:01.762Z,-1.61
2023-03-29T04:48:21.842Z,-1.59
2023-03-29T04:49:25.922Z,-1.72
2023-03-29T04:50:28.395Z,-1.88
2023-03-29T04:51:30.091Z,-1.99
2023-03-29T04:52:32.587Z,-1.94
2023-03-29T04:53:35.246Z,-1.84
2023-03-29T04:54:37.109Z,-1.82
2023-03-29T04:55:47.207Z,-1.95
2023-03-29T04:56:54.310Z,-2.02
2023-03-29T04:58:09.240Z,-2.26
2023-03-29T04:59:13.870Z,-2.19
2023-03-29T05:00:15.848Z,-2.17
2023-03-29T05:01:36.263Z,-2.13
2023-03-29T05:02:38.023Z,-2.05
2023-03-29T05:03:39.663Z,-2.02
2023-03-29T05:04:49.625Z,-2.10
2023-03-29T05:05:53.268Z,-2.08
2023-03-29T05:06:55.778Z,-2.00
2023-03-29T05:07:57.425Z,-1.91
2023-03-29T05:09:07.846Z,-1.79
2023-03-29T05:10:23.606Z,-1.67
2023-03-29T05:11:25.194Z,-1.62
2023-03-29T05:12:27.367Z,-1.51
2023-03-29T05:13:29.660Z,-1.40
2023-03-29T05:14:31.270Z,-1.37
2023-03-29T05:15:32.919Z,-1.35
2023-03-29T05:16:34.712Z,-1.06
2023-03-29T05:17:36.599Z,-0.73
2023-03-29T05:18:43.231Z,-0.32
2023-03-29T05:19:45.512Z,0.16
2023-03-29T05:20:50.494Z,0.50
2023-03-29T05:21:53.457Z,0.91
2023-03-29T05:22:57.836Z,1.22
2023-03-29T05:24:22.217Z,1.65
2023-03-29T05:25:36.343Z,2.00
2023-03-29T05:26:38.564Z,2.33
2023-03-29T05:27:42.386Z,2.63
2023-03-29T05:28:44.986Z,2.92
2023-03-29T05:29:46.824Z,3.03
2023-03-29T05:31:05.086Z,3.22
2023-03-29T05:32:08.718Z,3.44
2023-03-29T05:33:10.811Z,3.63
2023-03-29T05:34:13.473Z,3.76
2023-03-29T05:35:20.833Z,3.97
2023-03-29T05:36:22.503Z,4.04
2023-03-29T05:37:25.243Z,4.22
2023-03-29T05:38:31.847Z,4.37
2023-03-29T05:39:35.793Z,4.34
2023-03-29T05:40:39.468Z,4.30
2023-03-29T05:42:01.065Z,4.18
2023-03-29T05:43:06.115Z,4.30
2023-03-29T05:44:07.757Z,4.32
2023-03-29T05:45:11.108Z,4.38
2023-03-29T05:46:14.402Z,4.47
2023-03-29T05:47:22.926Z,4.62
2023-03-29T05:48:25.817Z,4.71
2023-03-29T05:49:27.513Z,4.78
2023-03-29T05:50:51.662Z,4.84
2023-03-29T05:51:53.729Z,4.86
2023-03-29T05:52:55.432Z,4.89
2023-03-29T05:53:57.981Z,4.88
2023-03-29T05:54:59.883Z,4.90
2023-03-29T05:56:02.311Z,4.94
2023-03-29T05:57:04.997Z,4.96
2023-03-29T05:58:12.448Z,4.66
2023-03-29T05:59:15.073Z,4.06
2023-03-29T06:00:17.954Z,3.70
2023-03-29T06:01:19.665Z,3.69
2023-03-29T06:02:35.307Z,3.87
2023-03-29T06:03:38.651Z,3.75
2023-03-29T06:04:40.828Z,3.91
2023-03-29T06:06:06.762Z,4.02
2023-03-29T06:07:08.744Z,4.17
2023-03-29T06:08:10.467Z,4.33
2023-03-29T06:09:12.685Z,4.27
2023-03-29T06:10:20.588Z,4.35
2023-03-29T06:11:26.703Z,4.36
2023-03-29T06:12:46.656Z,4.42
2023-03-29T06:13:48.406Z,4.46
2023-03-29T06:14:50.458Z,4.56
2023-03-29T06:16:06.828Z,4.42
2023-03-29T06:17:08.965Z,4.28
2023-03-29T06:18:10.733Z,4.39
2023-03-29T06:19:13.013Z,4.56
2023-03-29T06:20:15.670Z,4.68
2023-03-29T06:21:19.975Z,4.76
2023-03-29T06:22:21.726Z,4.88
2023-03-29T06:23:23.615Z,4.99
2023-03-29T06:24:25.405Z,5.17
2023-03-29T06:25:35.935Z,5.39
2023-03-29T06:26:37.568Z,5.56
2023-03-29T06:27:39.201Z,5.70
2023-03-29T06:28:40.854Z,5.95
2023-03-29T06:29:42.968Z,6.02
2023-03-29T06:30:45.622Z,6.22
2023-03-29T06:31:47.485Z,6.43
2023-03-29T06:33:08.988Z,6.65
2023-03-29T06:34:28.952Z,6.94
2023-03-29T06:35:47.782Z,7.21
2023-03-29T06:36:53.288Z,7.29
2023-03-29T06:37:56.117Z,7.42
2023-03-29T06:39:20.621Z,7.59
2023-03-29T06:40:44.809Z,7.65
2023-03-29T06:41:46.492Z,7.80
2023-03-29T06:43:06.923Z,7.79
2023-03-29T06:44:21.283Z,8.09
2023-03-29T06:45:36.838Z,8.33
2023-03-29T06:46:43.528Z,8.53
2023-03-29T06:47:45.322Z,8.50
2023-03-29T06:48:46.921Z,8.77
2023-03-29T06:49:48.611Z,8.63
2023-03-29T06:51:10.446Z,8.93
2023-03-29T06:52:14.229Z,9.01
2023-03-29T06:53:16.742Z,9.24
2023-03-29T06:54:22.154Z,9.40
2023-03-29T06:55:33.201Z,9.16
2023-03-29T06:56:45.304Z,9.08
2023-03-29T06:57:50.081Z,8.95
2023-03-29T06:58:51.888Z,8.85
2023-03-29T07:00:19.423Z,8.79
2023-03-29T07:01:43.478Z,8.79
2023-03-29T07:02:51.536Z,8.44
2023-03-29T07:03:53.206Z,8.34
2023-03-29T07:05:00.594Z,8.30
2023-03-29T07:06:16.473Z,8.58
2023-03-29T07:07:18.292Z,8.83
2023-03-29T07:08:19.903Z,9.12
2023-03-29T07:09:38.849Z,9.23
2023-03-29T07:11:00.801Z,8.87
2023-03-29T07:12:17.880Z,8.45
2023-03-29T07:13:19.624Z,8.01
2023-03-29T07:14:24.862Z,7.70
2023-03-29T07:15:28.456Z,7.74
2023-03-29T07:17:05.247Z,8.07
2023-03-29T07:18:10.073Z,8.09
2023-03-29T07:19:12.316Z,8.20
2023-03-29T07:20:26.314Z,8.13
2023-03-29T07:21:39.815Z,7.88
2023-03-29T07:22:42.652Z,7.62
2023-03-29T07:23:44.294Z,7.44
2023-03-29T07:24:46.306Z,7.39
2023-03-29T07:25:47.923Z,7.49
2023-03-29T07:27:03.245Z,7.32
2023-03-29T07:28:07.391Z,7.26
2023-03-29T07:29:09.013Z,7.23
2023-03-29T07:30:14.312Z,7.20
2023-03-29T07:31:16.956Z,7.10
2023-03-29T07:32:23.973Z,7.30
2023-03-29T07:33:44.544Z,7.29
2023-03-29T07:34:46.330Z,7.34
2023-03-29T07:35:57.458Z,7.33
2023-03-29T07:36:59.303Z,7.13
2023-03-29T07:38:01.067Z,7.16
2023-03-29T07:39:02.962Z,7.23
2023-03-29T07:40:09.282Z,7.16
2023-03-29T07:41:10.832Z,7.11
2023-03-29T07:42:23.030Z,7.17
2023-03-29T07:43:25.179Z,7.21
2023-03-29T07:44:26.806Z,7.16
2023-03-29T07:45:28.957Z,6.96
2023-03-29T07:46:44.079Z,6.91
2023-03-29T07:47:46.814Z,6.87
2023-03-29T07:48:48.743Z,6.83
2023-03-29T07:49:50.439Z,6.78
2023-03-29T07:50:52.549Z,6.89
2023-03-29T07:51:58.873Z,7.08
2023-03-29T07:53:00.731Z,7.04
2023-03-29T07:54:03.693Z,6.98
2023-03-29T07:55:21.819Z,7.07
2023-03-29T07:56:40.267Z,7.03
2023-03-29T07:57:53.022Z,7.06
2023-03-29T07:58:54.663Z,7.16
2023-03-29T07:59:56.310Z,7.08
2023-03-29T08:01:02.083Z,7.17
2023-03-29T08:02:23.910Z,7.12
2023-03-29T08:03:27.398Z,7.12
2023-03-29T08:04:29.185Z,7.11
2023-03-29T08:05:49.337Z,7.21
2023-03-29T08:06:51.418Z,7.17
2023-03-29T08:07:55.249Z,7.19
2023-03-29T08:08:59.789Z,7.31
2023-03-29T08:10:01.510Z,7.36
2023-03-29T08:11:23.370Z,7.47
2023-03-29T08:12:34.473Z,7.58
2023-03-29T08:13:37.054Z,7.52
2023-03-29T08:15:09.006Z,7.55
2023-03-29T08:16:12.021Z,7.38
2023-03-29T08:17:19.953Z,7.45
2023-03-29T08:18:24.109Z,7.56
2023-03-29T08:19:25.826Z,7.64
2023-03-29T08:20:36.403Z,7.56
2023-03-29T08:21:39.474Z,7.40
2023-03-29T08:22:41.954Z,7.39
2023-03-29T08:24:02.436Z,7.30
2023-03-29T08:25:16.251Z,7.24
2023-03-29T08:26:21.837Z,7.19
2023-03-29T08:27:25.106Z,7.34
2023-03-29T08:28:27.146Z,7.41
2023-03-29T08:29:29.307Z,7.49
2023-03-29T08:30:30.976Z,7.48
2023-03-29T08:31:33.523Z,7.53
2023-03-29T08:32:36.611Z,7.50
2023-03-29T08:33:38.853Z,7.51
2023-03-29T08:35:07.537Z,7.48
2023-03-29T08:36:13.447Z,7.51
2023-03-29T08:37:15.436Z,7.56
2023-03-29T08:38:23.083Z,7.64
2023-03-29T08:39:31.334Z,7.62
2023-03-29T08:40:58.410Z,7.73
2023-03-29T08:42:25.500Z,7.73
2023-03-29T08:43:52.274Z,7.89
2023-03-29T08:45:13.471Z,7.97
2023-03-29T08:46:35.338Z,8.07
2023-03-29T08:48:20.588Z,8.07
2023-03-29T08:49:23.115Z,7.98
2023-03-29T08:50:44.139Z,7.91
2023-03-29T08:51:50.290Z,7.98
2023-03-29T08:52:59.286Z,8.06
2023-03-29T08:54:40.212Z,8.12
2023-03-29T08:56:08.419Z,8.21
2023-03-29T08:57:32.216Z,8.16
2023-03-29T08:58:42.290Z,8.16
2023-03-29T08:59:45.387Z,8.11
2023-03-29T09:00:52.999Z,8.05
2023-03-29T09:01:58.134Z,8.12
2023-03-29T09:15:23.551Z,8.72
2023-03-29T09:16:38.030Z,8.66
2023-03-29T09:17:52.499Z,8.63
2023-03-29T09:19:28.278Z,8.58
2023-03-29T09:20:39.283Z,8.63
2023-03-29T09:27:17.558Z,8.81
2023-03-29T09:29:06.539Z,8.76
2023-03-29T09:30:47.464Z,8.91
2023-03-29T09:31:49.687Z,8.99
2023-03-29T09:33:12.443Z,9.03
2023-03-29T09:34:43.704Z,9.11
2023-03-29T09:45:24.813Z,9.35
2023-03-29T09:46:41.825Z,9.31
2023-03-29T09:57:02.696Z,9.50
2023-03-29T09:59:27.943Z,9.66
2023-03-29T10:00:29.805Z,9.58
2023-03-29T10:01:40.345Z,9.52
2023-03-29T10:02:50.837Z,9.54
2023-03-29T10:03:53.601Z,9.45
2023-03-29T10:04:56.923Z,9.39
2023-03-29T10:06:00.689Z,9.40
2023-03-29T10:07:03.863Z,9.41
2023-03-29T10:08:29.773Z,9.22
2023-03-29T10:09:34.047Z,9.27
2023-03-29T10:10:48.596Z,9.50
2023-03-29T10:11:54.727Z,9.59
2023-03-29T10:13:07.275Z,9.67
2023-03-29T10:14:34.995Z,9.83
2023-03-29T10:15:36.935Z,9.84
2023-03-29T10:16:41.924Z,9.93
2023-03-29T10:17:43.910Z,9.91
2023-03-29T10:18:45.540Z,9.93
2023-03-29T10:21:04.783Z,9.95
2023-03-29T10:22:38.395Z,9.90
2023-03-29T10:24:05.773Z,9.91
2023-03-29T10:25:15.785Z,10.01
2023-03-29T10:29:07.636Z,9.94
2023-03-29T10:30:12.917Z,9.94
2023-03-29T10:34:10.753Z,10.08
2023-03-29T10:35:24.041Z,10.20
2023-03-29T10:36:27.116Z,10.27
2023-03-29T10:37:31.435Z,10.20
2023-03-29T10:38:36.267Z,10.05
2023-03-29T10:39:39.656Z,10.07
2023-03-29T10:40:52.672Z,10.09
2023-03-29T10:41:54.799Z,10.12
2023-03-29T10:45:39.706Z,9.80
2023-03-29T10:46:43.392Z,9.66
2023-03-29T10:47:45.460Z,9.49
2023-03-29T10:48:49.862Z,9.56
2023-03-29T10:49:57.394Z,9.61
2023-03-29T10:51:02.054Z,9.60
2023-03-29T10:52:07.337Z,9.63
2023-03-29T10:53:35.598Z,9.68
2023-03-29T10:54:37.299Z,9.69
2023-03-29T10:56:03.712Z,9.71
2023-03-29T10:58:42.603Z,9.45
2023-03-29T10:59:52.863Z,9.58
2023-03-29T11:00:58.196Z,9.56
2023-03-29T11:02:08.775Z,9.59
2023-03-29T11:03:21.462Z,9.59
2023-03-29T11:04:45.211Z,9.41
2023-03-29T11:06:10.563Z,9.37
2023-03-29T11:07:33.487Z,9.48
2023-03-29T11:09:13.412Z,9.56
2023-03-29T11:10:26.844Z,9.50
2023-03-29T11:11:47.042Z,9.37
2023-03-29T11:13:03.704Z,9.33
2023-03-29T11:14:21.937Z,9.42
2023-03-29T11:15:41.844Z,9.52
2023-03-29T11:17:12.750Z,9.51
2023-03-29T11:18:51.730Z,9.50
2023-03-29T11:20:19.201Z,9.64
2023-03-29T11:21:59.087Z,9.70
2023-03-29T11:23:03.439Z,9.77
2023-03-29T11:24:23.728Z,9.82
2023-03-29T11:25:39.620Z,9.90
2023-03-29T11:26:56.285Z,9.91
2023-03-29T11:28:30.242Z,9.80
2023-03-29T11:29:38.936Z,9.82
2023-03-29T11:30:43.513Z,9.74
2023-03-29T11:32:05.118Z,9.64
2023-03-29T11:33:40.470Z,9.71
2023-03-29T11:34:57.320Z,9.68
2023-03-29T11:36:11.128Z,9.77
2023-03-29T11:37:20.433Z,9.86
2023-03-29T11:39:06.338Z,9.77
2023-03-29T11:40:44.876Z,9.82
2023-03-29T11:41:50.750Z,9.89
2023-03-29T11:42:55.193Z,9.95
2023-03-29T11:44:30.314Z,10.11
2023-03-29T11:45:53.869Z,10.21
2023-03-29T11:47:06.694Z,10.24
2023-03-29T11:48:18.662Z,10.26
2023-03-29T11:49:28.634Z,10.20
2023-03-29T11:50:43.226Z,10.27
2023-03-29T11:52:03.169Z,10.29
2023-03-29T11:53:16.834Z,10.09
2023-03-29T11:54:25.308Z,10.09
2023-03-29T11:55:33.301Z,9.96
2023-03-29T11:56:47.158Z,9.88
2023-03-29T11:57:56.016Z,9.88
2023-03-29T11:59:03.945Z,9.81
2023-03-29T12:00:11.734Z,9.87
2023-03-29T12:01:35.169Z,9.98
2023-03-29T12:02:46.011Z,9.95
2023-03-29T12:03:55.560Z,9.94
2023-03-29T12:05:01.064Z,9.86
2023-03-29T12:06:18.331Z,9.91
2023-03-29T12:07:29.082Z,10.02
2023-03-29T12:08:35.098Z,10.19
2023-03-29T12:09:39.204Z,10.05
2023-03-29T12:10:46.492Z,10.05
2023-03-29T12:12:18.077Z,10.19
2023-03-29T12:13:32.254Z,10.36
2023-03-29T12:14:47.226Z,10.44
2023-03-29T12:15:55.252Z,10.45
2023-03-29T12:17:05.740Z,10.49
2023-03-29T12:18:19.962Z,10.51
2023-03-29T12:19:45.220Z,10.44
2023-03-29T12:20:52.655Z,10.46
2023-03-29T12:21:56.930Z,10.51
2023-03-29T12:22:59.245Z,10.49
2023-03-29T12:24:01.024Z,10.36
2023-03-29T12:25:05.203Z,10.32
2023-03-29T12:26:38.026Z,10.46
2023-03-29T12:28:01.522Z,10.50
2023-03-29T12:29:11.960Z,10.51
2023-03-29T12:30:25.900Z,10.46
2023-03-29T12:31:30.348Z,10.45
2023-03-29T12:32:51.612Z,10.40
2023-03-29T12:40:25.199Z,9.84
2023-03-29T12:41:46.757Z,9.83
2023-03-29T12:42:53.876Z,9.92
2023-03-29T12:44:15.007Z,9.93
2023-03-29T12:45:42.415Z,10.01
2023-03-29T12:46:44.370Z,9.98
2023-03-29T12:47:47.703Z,9.77
2023-03-29T12:48:53.024Z,9.76
2023-03-29T12:49:57.363Z,9.76
2023-03-29T12:51:02.063Z,9.76
2023-03-29T12:52:31.380Z,9.83
2023-03-29T12:53:40.317Z,9.94
2023-03-29T12:54:56.713Z,10.03
2023-03-29T12:56:01.152Z,10.09
2023-03-29T12:57:21.632Z,10.17
2023-03-29T12:58:25.895Z,10.24
2023-03-29T12:59:44.049Z,10.30
2023-03-29T13:00:47.222Z,10.28
2023-03-29T13:02:14.998Z,10.25
2023-03-29T13:03:39.755Z,10.23
2023-03-29T13:04:43.864Z,10.24
2023-03-29T13:05:46.144Z,10.20
2023-03-29T13:06:56.183Z,10.34
2023-03-29T13:07:57.765Z,10.35
2023-03-29T13:09:21.022Z,10.34
2023-03-29T13:10:41.306Z,10.31
2023-03-29T13:11:43.051Z,10.20
2023-03-29T13:12:45.469Z,10.23
2023-03-29T13:13:50.604Z,10.13
2023-03-29T13:15:00.795Z,10.24
2023-03-29T13:16:29.042Z,10.35
2023-03-29T13:17:55.114Z,10.45
2023-03-29T13:18:56.627Z,10.46
2023-03-29T13:20:19.675Z,10.27
2023-03-29T13:21:40.869Z,10.23
2023-03-29T13:22:56.386Z,10.22
2023-03-29T13:24:22.985Z,10.22
2023-03-29T13:25:39.338Z,10.20
2023-03-29T13:26:53.026Z,10.32
2023-03-29T13:28:11.412Z,10.31
2023-03-29T13:29:27.140Z,10.26
2023-03-29T13:30:44.281Z,10.23
2023-03-29T13:32:03.351Z,10.20
2023-03-29T13:33:11.773Z,10.21
2023-03-29T13:34:44.423Z,10.29
2023-03-29T13:36:15.579Z,10.38
2023-03-29T13:37:23.033Z,10.35
2023-03-29T13:38:28.280Z,10.35
2023-03-29T13:39:33.370Z,10.37
2023-03-29T13:40:41.067Z,10.42
2023-03-29T13:41:42.521Z,10.42
2023-03-29T13:42:56.018Z,10.34
2023-03-29T13:43:58.088Z,10.39
2023-03-29T13:45:12.790Z,10.53
2023-03-29T13:46:37.578Z,10.49
2023-03-29T13:47:54.850Z,10.50
2023-03-29T13:49:22.013Z,10.63
2023-03-29T13:50:35.479Z,10.71
2023-03-29T13:51:42.751Z,10.65
2023-03-29T13:53:07.878Z,10.49
2023-03-29T13:54:14.637Z,10.47
2023-03-29T13:55:25.008Z,10.44
2023-03-29T13:56:53.355Z,10.45
2023-03-29T13:58:06.689Z,10.48
2023-03-29T13:59:23.965Z,10.44
2023-03-29T14:00:32.150Z,10.44
2023-03-29T14:01:43.627Z,10.47
2023-03-29T14:02:59.061Z,10.50
2023-03-29T14:04:02.638Z,10.46
2023-03-29T14:05:07.967Z,10.43
2023-03-29T14:06:13.257Z,10.48
2023-03-29T14:07:15.348Z,10.37
2023-03-29T14:08:23.389Z,10.39
2023-03-29T14:09:33.257Z,10.43
2023-03-29T14:10:41.926Z,10.46
2023-03-29T14:11:46.393Z,10.56
2023-03-29T14:12:48.631Z,10.60
2023-03-29T14:13:58.323Z,10.58
2023-03-29T14:15:03.240Z,10.44
2023-03-29T14:16:09.344Z,10.34
2023-03-29T14:17:21.036Z,10.26
2023-03-29T14:18:23.637Z,10.30
2023-03-29T14:19:31.348Z,10.24
2023-03-29T14:20:33.362Z,10.24
2023-03-29T14:21:34.916Z,10.21
2023-03-29T14:22:37.459Z,10.26
2023-03-29T14:23:39.706Z,10.27
2023-03-29T14:24:52.851Z,10.30
2023-03-29T14:25:54.391Z,10.24
2023-03-29T14:26:56.318Z,10.12
2023-03-29T14:27:57.883Z,10.10
2023-03-29T14:29:01.106Z,10.06
2023-03-29T14:30:16.632Z,10.15
2023-03-29T14:31:23.691Z,10.25
2023-03-29T14:32:30.464Z,10.18
2023-03-29T14:33:33.202Z,10.13
2023-03-29T14:34:34.770Z,10.15
2023-03-29T14:35:36.498Z,10.19
2023-03-29T14:36:39.057Z,10.17
2023-03-29T14:37:42.773Z,10.00
2023-03-29T14:38:52.036Z,9.97
2023-03-29T14:39:54.694Z,10.04
2023-03-29T14:41:01.737Z,9.98
2023-03-29T14:42:03.693Z,9.98
2023-03-29T14:43:07.613Z,10.04
2023-03-29T14:44:09.312Z,9.96
2023-03-29T14:45:13.355Z,9.84
2023-03-29T14:46:20.304Z,9.92
2023-03-29T14:47:30.493Z,9.80
2023-03-29T14:48:32.553Z,9.78
2023-03-29T14:49:34.196Z,9.83
2023-03-29T14:50:35.953Z,9.86
2023-03-29T14:51:37.690Z,9.80
2023-03-29T14:52:40.203Z,9.77
2023-03-29T14:53:42.285Z,9.84
2023-03-29T14:54:46.987Z,9.81
2023-03-29T14:55:51.108Z,9.67
2023-03-29T14:56:53.752Z,9.67
2023-03-29T14:57:56.172Z,9.67
2023-03-29T14:58:57.811Z,9.60
2023-03-29T15:00:01.527Z,9.64
2023-03-29T15:01:14.037Z,9.61
2023-03-29T15:02:24.551Z,9.62
2023-03-29T15:03:26.322Z,9.66
2023-03-29T15:04:35.182Z,9.58
2023-03-29T15:05:40.051Z,9.52
2023-03-29T15:06:43.232Z,9.43
2023-03-29T15:07:44.943Z,9.43
2023-03-29T15:08:58.056Z,9.46
2023-03-29T15:10:06.122Z,9.47
2023-03-29T15:11:19.232Z,9.37
2023-03-29T15:12:20.935Z,9.31
2023-03-29T15:13:24.562Z,9.26
2023-03-29T15:14:29.996Z,9.29
2023-03-29T15:15:37.798Z,9.28
2023-03-29T15:16:42.246Z,9.23
2023-03-29T15:17:51.022Z,9.17
2023-03-29T15:18:53.209Z,9.13
2023-03-29T15:20:04.339Z,9.11
2023-03-29T15:21:10.835Z,9.16
2023-03-29T15:22:12.482Z,9.18
2023-03-29T15:23:16.897Z,9.10
2023-03-29T15:24:27.771Z,9.09
2023-03-29T15:25:37.419Z,9.05
2023-03-29T15:26:39.015Z,9.07
2023-03-29T15:27:41.504Z,8.93
2023-03-29T15:28:54.727Z,8.86
2023-03-29T15:30:01.070Z,8.86
2023-03-29T15:31:10.015Z,8.89
2023-03-29T15:32:21.719Z,8.93
2023-03-29T15:33:23.525Z,8.86
2023-03-29T15:34:27.036Z,8.88
2023-03-29T15:35:28.661Z,8.84
2023-03-29T15:36:30.575Z,8.82
2023-03-29T15:37:32.531Z,8.89
2023-03-29T15:38:43.218Z,8.86
2023-03-29T15:39:46.894Z,8.86
2023-03-29T15:40:48.481Z,8.85
2023-03-29T15:41:52.634Z,8.84
2023-03-29T15:42:54.838Z,8.84
2023-03-29T15:43:56.586Z,8.88
2023-03-29T15:44:58.138Z,8.93
2023-03-29T15:45:59.795Z,8.97
2023-03-29T15:47:01.408Z,8.91
2023-03-29T15:48:09.052Z,8.95
2023-03-29T15:49:11.700Z,8.98
2023-03-29T15:50:13.551Z,8.91
2023-03-29T15:51:15.145Z,8.90
2023-03-29T15:52:16.672Z,8.90
2023-03-29T15:53:18.352Z,8.87